createdAt,value
2018-04-10T00:02:09.874Z,14.50
2018-04-10T00:04:37.128Z,14.50
2018-04-10T00:07:03.654Z,14.50
2018-04-10T00:09:30.253Z,14.50
2018-04-10T00:11:56.723Z,14.50
2018-04-10T00:14:23.247Z,14.60
2018-04-10T00:16:49.771Z,14.60
2018-04-10T00:19:17.095Z,14.50
2018-04-10T00:21:43.659Z,14.40
2018-04-10T00:24:10.170Z,14.40
2018-04-10T00:26:36.770Z,14.30
2018-04-10T00:29:03.389Z,14.30
2018-04-10T00:31:29.917Z,14.20
2018-04-10T00:33:56.411Z,14.10
2018-04-10T00:36:22.925Z,14.10
2018-04-10T00:38:50.267Z,13.90
2018-04-10T00:41:17.484Z,13.90
2018-04-10T00:43:44.108Z,13.90
2018-04-10T00:46:10.623Z,14.00
2018-04-10T00:48:37.167Z,14.10
2018-04-10T00:51:03.698Z,14.10
2018-04-10T00:53:38.330Z,14.20
2018-04-10T00:56:04.904Z,14.20
2018-04-10T00:58:31.502Z,14.20
2018-04-10T01:00:57.982Z,14.20
2018-04-10T01:03:24.547Z,14.20
2018-04-10T01:05:51.878Z,14.10
2018-04-10T01:08:18.415Z,14.10
2018-04-10T01:10:44.879Z,14.10
2018-04-10T01:13:12.152Z,14.20
2018-04-10T01:15:38.682Z,14.20
2018-04-10T01:18:05.861Z,14.20
2018-04-10T01:20:32.353Z,14.20
2018-04-10T01:22:59.025Z,14.20
2018-04-10T01:25:25.506Z,14.20
2018-04-10T01:27:52.737Z,14.30
2018-04-10T01:30:19.340Z,14.30
2018-04-10T01:32:45.867Z,14.30
2018-04-10T01:35:12.307Z,14.30
2018-04-10T01:37:43.672Z,14.30
2018-04-10T01:40:10.186Z,14.20
2018-04-10T01:42:36.613Z,14.20
2018-04-10T01:45:03.846Z,14.10
2018-04-10T01:47:33.986Z,14.10
2018-04-10T01:50:01.195Z,14.10
2018-04-10T01:52:27.685Z,14.10
2018-04-10T01:54:54.345Z,14.00
2018-04-10T01:57:20.923Z,14.00
2018-04-10T01:59:47.409Z,14.00
2018-04-10T02:02:13.911Z,13.90
2018-04-10T02:04:41.223Z,13.80
2018-04-10T02:07:07.715Z,13.80
2018-04-10T02:09:34.303Z,13.80
2018-04-10T02:12:00.855Z,13.90
2018-04-10T02:14:27.353Z,13.90
2018-04-10T02:16:54.636Z,13.90
2018-04-10T02:19:21.108Z,13.90
2018-04-10T02:21:47.575Z,13.90
2018-04-10T02:24:14.808Z,13.90
2018-04-10T02:26:41.299Z,13.90
2018-04-10T02:29:08.662Z,13.90
2018-04-10T02:31:35.964Z,13.90
2018-04-10T02:34:02.427Z,13.80
2018-04-10T02:36:28.876Z,13.80
2018-04-10T02:38:55.368Z,13.80
2018-04-10T02:41:21.864Z,13.80
2018-04-10T02:43:48.383Z,13.90
2018-04-10T02:46:15.666Z,13.80
2018-04-10T02:48:43.144Z,13.80
2018-04-10T02:51:09.621Z,13.80
2018-04-10T02:53:36.055Z,13.80
2018-04-10T02:56:02.589Z,13.80
2018-04-10T02:58:29.018Z,13.80
2018-04-10T03:00:55.554Z,13.80
2018-04-10T03:03:22.138Z,13.80
2018-04-10T03:05:48.565Z,13.80
2018-04-10T03:08:18.656Z,13.80
2018-04-10T03:10:45.160Z,13.70
2018-04-10T03:13:11.714Z,13.80
2018-04-10T03:15:38.228Z,13.70
2018-04-10T03:18:04.800Z,13.70
2018-04-10T03:20:32.080Z,13.60
2018-04-10T03:22:58.610Z,13.60
2018-04-10T03:25:25.087Z,13.60
2018-04-10T03:27:53.683Z,13.50
2018-04-10T03:30:20.272Z,13.50
2018-04-10T03:32:46.843Z,13.50
2018-04-10T03:35:13.336Z,13.50
2018-04-10T03:37:44.144Z,13.60
2018-04-10T03:40:10.674Z,13.50
2018-04-10T03:42:37.145Z,13.60
2018-04-10T03:45:04.363Z,13.50
2018-04-10T03:47:30.906Z,13.50
2018-04-10T03:49:57.372Z,13.50
2018-04-10T03:52:24.568Z,13.50
2018-04-10T03:54:51.100Z,13.40
2018-04-10T03:57:17.570Z,13.50
2018-04-10T03:59:44.066Z,13.50
2018-04-10T04:02:10.576Z,13.50
2018-04-10T04:04:37.199Z,13.50
2018-04-10T04:07:07.548Z,13.60
2018-04-10T04:09:34.044Z,13.60
2018-04-10T04:12:08.220Z,13.60
2018-04-10T04:14:34.800Z,13.60
2018-04-10T04:17:13.678Z,13.60
2018-04-10T04:19:52.344Z,13.60
2018-04-10T04:22:31.020Z,13.60
2018-04-10T04:24:57.624Z,13.60
2018-04-10T04:27:24.267Z,13.60
2018-04-10T04:29:50.904Z,13.50
2018-04-10T04:32:17.412Z,13.40
2018-04-10T04:34:43.828Z,13.50
2018-04-10T04:37:10.305Z,13.50
2018-04-10T04:39:36.751Z,13.40
2018-04-10T04:42:03.285Z,13.40
2018-04-10T04:44:29.796Z,13.30
2018-04-10T04:46:56.969Z,13.40
2018-04-10T04:49:23.451Z,13.40
2018-04-10T04:51:49.883Z,13.40
2018-04-10T04:54:16.403Z,13.40
2018-04-10T04:56:42.768Z,13.30
2018-04-10T04:59:09.174Z,13.40
2018-04-10T05:01:35.588Z,13.40
2018-04-10T05:04:01.961Z,13.50
2018-04-10T05:06:28.436Z,13.40
2018-04-10T05:08:54.820Z,13.40
2018-04-10T05:11:21.299Z,13.40
2018-04-10T05:13:47.742Z,13.50
2018-04-10T05:16:14.228Z,13.40
2018-04-10T05:18:40.651Z,13.50
2018-04-10T05:21:07.055Z,13.40
2018-04-10T05:23:33.531Z,13.40
2018-04-10T05:26:00.027Z,13.40
2018-04-10T05:28:30.200Z,13.40
2018-04-10T05:30:57.305Z,13.50
2018-04-10T05:33:23.691Z,13.50
2018-04-10T05:35:50.829Z,13.50
2018-04-10T05:38:17.941Z,13.40
2018-04-10T05:40:44.329Z,13.40
2018-04-10T05:43:10.763Z,13.40
2018-04-10T05:45:37.175Z,13.40
2018-04-10T05:48:07.360Z,13.40
2018-04-10T05:50:33.769Z,13.40
2018-04-10T05:53:00.153Z,13.40
2018-04-10T05:55:26.573Z,13.40
2018-04-10T05:57:53.975Z,13.40
2018-04-10T06:00:20.400Z,13.40
2018-04-10T06:02:47.527Z,13.40
2018-04-10T06:05:13.851Z,13.40
2018-04-10T06:07:43.667Z,13.30
2018-04-10T06:10:10.089Z,13.30
2018-04-10T06:12:36.665Z,13.30
2018-04-10T06:15:03.114Z,13.30
2018-04-10T06:17:30.532Z,13.40
2018-04-10T06:19:57.983Z,13.40
2018-04-10T06:22:25.417Z,13.40
2018-04-10T06:24:51.864Z,13.40
2018-04-10T06:27:21.466Z,13.50
2018-04-10T06:29:50.070Z,13.50
2018-04-10T06:32:16.416Z,13.50
2018-04-10T06:34:43.483Z,12.80
2018-04-10T06:37:10.559Z,12.60
2018-04-10T06:39:36.892Z,12.60
2018-04-10T06:42:03.218Z,12.60
2018-04-10T06:44:29.571Z,12.60
2018-04-10T06:46:59.535Z,12.60
2018-04-10T06:49:26.654Z,12.70
2018-04-10T06:51:52.980Z,12.70
2018-04-10T06:54:19.379Z,12.80
2018-04-10T06:56:48.970Z,12.80
2018-04-10T06:59:15.304Z,12.90
2018-04-10T07:01:42.420Z,13.00
2018-04-10T07:04:08.750Z,13.00
2018-04-10T07:06:35.086Z,13.10
2018-04-10T07:09:03.015Z,13.20
2018-04-10T07:11:29.343Z,13.20
2018-04-10T07:13:55.679Z,13.30
2018-04-10T07:16:21.998Z,13.40
2018-04-10T07:18:48.350Z,13.40
2018-04-10T07:21:14.696Z,13.50
2018-04-10T07:23:41.024Z,13.60
2018-04-10T07:26:07.356Z,13.60
2018-04-10T07:28:33.717Z,13.70
2018-04-10T07:31:00.857Z,13.70
2018-04-10T07:33:27.209Z,13.70
2018-04-10T07:35:53.607Z,13.70
2018-04-10T07:38:19.936Z,13.70
2018-04-10T07:40:46.281Z,13.80
2018-04-10T07:43:12.629Z,13.80
2018-04-10T07:45:39.731Z,13.90
2018-04-10T07:48:07.072Z,13.90
2018-04-10T07:50:33.411Z,14.00
2018-04-10T07:52:59.769Z,14.00
2018-04-10T07:55:26.166Z,14.00
2018-04-10T07:57:52.498Z,14.10
2018-04-10T08:00:18.828Z,14.10
2018-04-10T08:02:45.191Z,14.10
2018-04-10T08:05:11.565Z,14.20
2018-04-10T08:07:38.642Z,14.20
2018-04-10T08:10:04.971Z,14.20
2018-04-10T08:12:31.293Z,14.40
2018-04-10T08:14:57.642Z,14.40
2018-04-10T08:17:24.003Z,14.50
2018-04-10T08:19:50.354Z,14.50
2018-04-10T08:22:17.443Z,14.50
2018-04-10T08:24:43.778Z,14.50
2018-04-10T08:27:10.103Z,14.60
2018-04-10T08:29:36.458Z,14.60
2018-04-10T08:32:02.791Z,14.70
2018-04-10T08:34:29.114Z,14.80
2018-04-10T08:36:55.501Z,14.90
2018-04-10T08:39:22.676Z,15.00
2018-04-10T08:41:49.933Z,15.00
2018-04-10T08:44:16.260Z,15.00
2018-04-10T08:46:42.636Z,15.10
2018-04-10T08:49:09.007Z,15.30
2018-04-10T08:51:35.365Z,15.30
2018-04-10T08:54:01.710Z,15.40
2018-04-10T08:56:28.044Z,15.50
2018-04-10T08:58:54.400Z,15.50
2018-04-10T09:01:20.734Z,15.50
2018-04-10T09:03:47.066Z,15.50
2018-04-10T09:06:13.456Z,15.50
2018-04-10T09:08:39.795Z,15.60
2018-04-10T09:11:06.119Z,15.70
2018-04-10T09:13:32.470Z,15.80
2018-04-10T09:15:58.813Z,15.90
2018-04-10T09:18:25.201Z,15.90
2018-04-10T09:20:51.535Z,16.00
2018-04-10T09:23:17.874Z,16.10
2018-04-10T09:25:44.216Z,16.10
2018-04-10T09:28:11.558Z,16.20
2018-04-10T09:30:37.894Z,16.30
2018-04-10T09:33:04.219Z,16.40
2018-04-10T09:35:30.567Z,16.50
2018-04-10T09:37:56.918Z,16.50
2018-04-10T09:40:23.264Z,16.60
2018-04-10T09:42:49.595Z,16.70
2018-04-10T09:45:15.925Z,16.80
2018-04-10T09:47:42.995Z,17.00
2018-04-10T09:50:10.105Z,17.00
2018-04-10T09:52:36.449Z,17.00
2018-04-10T09:55:02.774Z,17.10
2018-04-10T09:57:29.136Z,17.00
2018-04-10T09:59:55.509Z,17.10
2018-04-10T10:02:21.835Z,17.20
2018-04-10T10:04:48.173Z,17.40
2018-04-10T10:07:14.508Z,17.40
2018-04-10T10:09:41.626Z,17.50
2018-04-10T10:12:07.965Z,17.50
2018-04-10T10:14:34.290Z,17.70
2018-04-10T10:17:00.614Z,17.80
2018-04-10T10:19:26.975Z,17.80
2018-04-10T10:21:53.309Z,17.70
2018-04-10T10:24:19.658Z,17.80
2018-04-10T10:26:46.728Z,17.90
2018-04-10T10:29:13.067Z,17.90
2018-04-10T10:31:39.380Z,17.90
2018-04-10T10:34:05.702Z,18.10
2018-04-10T10:36:32.026Z,18.30
2018-04-10T10:38:58.382Z,18.40
2018-04-10T10:41:24.698Z,18.40
2018-04-10T10:43:51.171Z,18.70
2018-04-10T10:46:18.245Z,18.90
2018-04-10T10:48:44.589Z,18.80
2018-04-10T10:51:10.924Z,18.80
2018-04-10T10:53:37.262Z,18.90
2018-04-10T10:56:03.608Z,19.00
2018-04-10T10:58:29.935Z,19.10
2018-04-10T11:00:56.264Z,19.30
2018-04-10T11:03:22.604Z,19.10
2018-04-10T11:05:49.007Z,18.90
2018-04-10T11:08:15.336Z,19.00
2018-04-10T11:10:41.663Z,19.00
2018-04-10T11:13:08.060Z,19.10
2018-04-10T11:15:34.398Z,19.20
2018-04-10T11:18:01.483Z,19.50
2018-04-10T11:20:27.819Z,19.50
2018-04-10T11:22:54.181Z,19.50
2018-04-10T11:25:20.508Z,19.50
2018-04-10T11:27:46.823Z,19.30
2018-04-10T11:30:13.159Z,19.50
2018-04-10T11:32:40.220Z,19.60
2018-04-10T11:35:06.554Z,19.60
2018-04-10T11:37:32.996Z,19.70
2018-04-10T11:39:59.321Z,19.80
2018-04-10T11:42:25.655Z,20.00
2018-04-10T11:44:52.000Z,20.00
2018-04-10T11:47:18.335Z,19.80
2018-04-10T11:49:45.411Z,19.80
2018-04-10T11:52:11.743Z,19.80
2018-04-10T11:54:38.101Z,20.00
2018-04-10T11:57:04.465Z,20.00
2018-04-10T11:59:30.806Z,20.10
2018-04-10T12:01:58.644Z,19.70
2018-04-10T12:04:24.991Z,19.70
2018-04-10T12:06:51.344Z,19.90
2018-04-10T12:09:18.415Z,20.10
2018-04-10T12:11:44.736Z,20.10
2018-04-10T12:14:11.105Z,20.20
2018-04-10T12:16:37.454Z,20.10
2018-04-10T12:19:03.818Z,20.00
2018-04-10T12:21:30.892Z,20.20
2018-04-10T12:23:57.245Z,20.20
2018-04-10T12:26:23.574Z,20.20
2018-04-10T12:28:49.904Z,20.40
2018-04-10T12:31:16.229Z,20.60
2018-04-10T12:33:42.567Z,20.50
2018-04-10T12:36:08.893Z,20.60
2018-04-10T12:38:35.254Z,20.40
2018-04-10T12:41:01.575Z,20.40
2018-04-10T12:43:27.927Z,20.60
2018-04-10T12:45:54.277Z,20.60
2018-04-10T12:48:21.355Z,21.00
2018-04-10T12:50:47.695Z,20.90
2018-04-10T12:53:14.051Z,20.90
2018-04-10T12:55:40.431Z,21.00
2018-04-10T12:58:07.513Z,21.50
2018-04-10T13:00:35.321Z,21.50
2018-04-10T13:03:01.645Z,21.60
2018-04-10T13:05:27.961Z,21.50
2018-04-10T13:07:54.305Z,21.80
2018-04-10T13:10:20.631Z,21.80
2018-04-10T13:12:46.969Z,21.70
2018-04-10T13:15:13.297Z,21.70
2018-04-10T13:17:39.623Z,21.90
2018-04-10T13:20:06.696Z,22.20
2018-04-10T13:22:33.767Z,22.30
2018-04-10T13:25:00.822Z,22.40
2018-04-10T13:27:27.170Z,22.40
2018-04-10T13:29:53.505Z,22.20
2018-04-10T13:32:19.830Z,22.40
2018-04-10T13:34:46.188Z,22.70
2018-04-10T13:37:12.522Z,22.60
2018-04-10T13:39:38.852Z,22.60
2018-04-10T13:42:05.182Z,22.60
2018-04-10T13:44:31.525Z,22.60
2018-04-10T13:46:57.870Z,22.30
2018-04-10T13:49:24.226Z,22.00
2018-04-10T13:51:51.291Z,21.70
2018-04-10T13:54:17.656Z,21.70
2018-04-10T13:56:44.004Z,21.50
2018-04-10T13:59:10.322Z,21.30
2018-04-10T14:01:36.647Z,21.10
2018-04-10T14:04:03.006Z,21.30
2018-04-10T14:06:29.398Z,21.50
2018-04-10T14:08:55.745Z,21.60
2018-04-10T14:11:22.063Z,21.60
2018-04-10T14:13:48.427Z,21.40
2018-04-10T14:16:14.789Z,21.20
2018-04-10T14:18:41.849Z,21.20
2018-04-10T14:21:08.213Z,21.20
2018-04-10T14:23:34.543Z,21.10
2018-04-10T14:26:00.895Z,21.00
2018-04-10T14:28:27.230Z,20.90
2018-04-10T14:30:53.602Z,20.80
2018-04-10T14:33:19.934Z,20.90
2018-04-10T14:35:47.007Z,20.70
2018-04-10T14:38:13.344Z,20.70
2018-04-10T14:40:39.725Z,20.70
2018-04-10T14:43:06.815Z,20.50
2018-04-10T14:45:33.146Z,20.40
2018-04-10T14:47:59.476Z,20.40
2018-04-10T14:50:25.813Z,20.30
2018-04-10T14:52:52.170Z,20.30
2018-04-10T14:55:18.548Z,20.30
2018-04-10T14:57:45.644Z,20.30
2018-04-10T15:00:11.978Z,20.30
2018-04-10T15:02:38.360Z,20.20
2018-04-10T15:05:05.438Z,20.30
2018-04-10T15:07:31.786Z,20.30
2018-04-10T15:09:58.121Z,20.30
2018-04-10T15:12:24.460Z,20.30
2018-04-10T15:14:50.819Z,20.30
2018-04-10T15:17:17.946Z,20.90
2018-04-10T15:19:44.313Z,20.90
2018-04-10T15:22:11.408Z,21.60
2018-04-10T15:24:37.741Z,21.60
2018-04-10T15:27:07.638Z,21.90
2018-04-10T15:29:33.980Z,21.50
2018-04-10T15:32:00.406Z,21.20
2018-04-10T15:34:26.804Z,21.10
2018-04-10T15:36:53.873Z,20.40
2018-04-10T15:39:20.217Z,20.40
2018-04-10T15:41:46.559Z,20.20
2018-04-10T15:44:12.923Z,20.10
2018-04-10T15:46:39.243Z,20.20
2018-04-10T15:49:05.575Z,20.20
2018-04-10T15:51:31.932Z,20.20
2018-04-10T15:53:59.002Z,20.10
2018-04-10T15:56:26.110Z,20.10
2018-04-10T15:58:52.414Z,20.10
2018-04-10T16:01:18.750Z,20.00
2018-04-10T16:03:45.072Z,20.00
2018-04-10T16:06:11.411Z,19.80
2018-04-10T16:08:37.749Z,19.70
2018-04-10T16:11:04.103Z,19.60
2018-04-10T16:13:30.445Z,19.70
2018-04-10T16:15:56.789Z,19.60
2018-04-10T16:18:23.848Z,19.60
2018-04-10T16:20:50.918Z,19.70
2018-04-10T16:23:17.269Z,19.70
2018-04-10T16:25:43.693Z,19.80
2018-04-10T16:28:11.051Z,19.80
2018-04-10T16:30:37.487Z,20.00
2018-04-10T16:33:03.845Z,20.00
2018-04-10T16:35:30.206Z,19.90
2018-04-10T16:37:56.541Z,19.80
2018-04-10T16:40:22.901Z,19.80
2018-04-10T16:42:49.231Z,19.70
2018-04-10T16:45:15.587Z,19.50
2018-04-10T16:47:41.923Z,19.40
2018-04-10T16:50:08.293Z,19.30
2018-04-10T16:52:35.615Z,19.20
2018-04-10T16:55:02.080Z,19.20
2018-04-10T16:57:29.162Z,19.10
2018-04-10T16:59:55.599Z,19.10
2018-04-10T17:02:23.011Z,18.60
2018-04-10T17:04:49.415Z,17.90
2018-04-10T17:07:15.816Z,17.30
2018-04-10T17:09:42.147Z,16.70
2018-04-10T17:12:08.521Z,16.40
2018-04-10T17:14:34.915Z,16.20
2018-04-10T17:17:01.270Z,16.00
2018-04-10T17:19:27.639Z,15.90
2018-04-10T17:21:54.024Z,15.90
2018-04-10T17:24:20.422Z,15.80
2018-04-10T17:26:46.805Z,15.70
2018-04-10T17:29:13.190Z,15.60
2018-04-10T17:31:39.587Z,15.50
2018-04-10T17:34:05.961Z,15.50
2018-04-10T17:36:32.369Z,15.40
2018-04-10T17:38:59.456Z,15.40
2018-04-10T17:41:25.803Z,15.30
2018-04-10T17:43:52.154Z,15.30
2018-04-10T17:46:18.508Z,15.30
2018-04-10T17:48:45.599Z,15.20
2018-04-10T17:51:11.939Z,15.10
2018-04-10T17:53:38.319Z,15.00
2018-04-10T17:56:04.686Z,15.00
2018-04-10T17:58:31.018Z,15.00
2018-04-10T18:00:57.364Z,14.90
2018-04-10T18:03:23.705Z,15.00
2018-04-10T18:05:50.117Z,14.90
2018-04-10T18:08:19.782Z,14.90
2018-04-10T18:10:56.890Z,14.80
2018-04-10T18:13:32.692Z,14.80
2018-04-10T18:15:59.154Z,14.70
2018-04-10T18:18:25.660Z,14.70
2018-04-10T18:20:52.138Z,14.60
2018-04-10T18:23:19.278Z,14.50
2018-04-10T18:25:45.724Z,14.50
2018-04-10T18:28:12.914Z,14.50
2018-04-10T18:30:39.336Z,14.50
2018-04-10T18:33:05.806Z,14.40
2018-04-10T18:35:33.059Z,14.50
2018-04-10T18:37:59.517Z,14.40
2018-04-10T18:40:25.927Z,14.40
2018-04-10T18:42:52.433Z,14.40
2018-04-10T18:45:18.906Z,14.50
2018-04-10T18:47:45.447Z,14.40
2018-04-10T18:50:11.928Z,14.40
2018-04-10T18:52:38.381Z,14.40
2018-04-10T18:55:04.829Z,14.40
2018-04-10T18:57:31.328Z,14.40
2018-04-10T18:59:57.909Z,14.40
2018-04-10T19:02:24.365Z,14.40
2018-04-10T19:04:51.523Z,14.30
2018-04-10T19:07:17.971Z,14.30
2018-04-10T19:09:44.445Z,14.30
2018-04-10T19:12:10.851Z,14.30
2018-04-10T19:14:37.239Z,14.30
2018-04-10T19:17:03.605Z,14.20
2018-04-10T19:19:30.151Z,14.30
2018-04-10T19:21:56.663Z,14.20
2018-04-10T19:24:23.893Z,14.10
2018-04-10T19:26:53.928Z,14.10
2018-04-10T19:29:20.410Z,14.10
2018-04-10T19:31:46.887Z,14.10
2018-04-10T19:34:14.119Z,14.10
2018-04-10T19:36:40.567Z,14.10
2018-04-10T19:39:07.696Z,14.00
2018-04-10T19:41:34.091Z,14.00
2018-04-10T19:44:00.439Z,13.90
2018-04-10T19:46:26.819Z,13.90
2018-04-10T19:48:53.254Z,13.80
2018-04-10T19:51:19.652Z,13.80
2018-04-10T19:53:46.089Z,13.90
2018-04-10T19:56:12.429Z,13.80
2018-04-10T19:58:38.785Z,13.80
2018-04-10T20:01:05.253Z,13.80
2018-04-10T20:03:31.659Z,13.80
2018-04-10T20:05:58.190Z,13.80
2018-04-10T20:08:24.679Z,13.70
2018-04-10T20:10:51.100Z,13.70
2018-04-10T20:13:17.541Z,13.80
2018-04-10T20:15:44.023Z,13.80
2018-04-10T20:18:11.128Z,13.60
2018-04-10T20:20:37.594Z,13.60
2018-04-10T20:23:04.832Z,13.60
2018-04-10T20:25:31.378Z,13.50
2018-04-10T20:27:57.933Z,13.60
2018-04-10T20:30:24.542Z,13.60
2018-04-10T20:32:51.091Z,13.50
2018-04-10T20:35:17.473Z,13.50
2018-04-10T20:37:43.941Z,13.50
2018-04-10T20:40:10.387Z,13.50
2018-04-10T20:42:36.886Z,13.50
2018-04-10T20:45:03.432Z,13.50
2018-04-10T20:47:29.957Z,13.50
2018-04-10T20:49:56.392Z,13.40
2018-04-10T20:52:22.877Z,13.40
2018-04-10T20:54:49.390Z,13.40
2018-04-10T20:57:15.857Z,13.30
2018-04-10T20:59:42.315Z,13.30
2018-04-10T21:02:08.782Z,13.30
2018-04-10T21:04:35.166Z,13.30
2018-04-10T21:07:02.331Z,13.10
2018-04-10T21:09:29.526Z,13.10
2018-04-10T21:11:56.022Z,13.10
2018-04-10T21:14:22.406Z,13.20
2018-04-10T21:16:48.829Z,13.20
2018-04-10T21:19:15.367Z,13.20
2018-04-10T21:21:41.869Z,13.20
2018-04-10T21:24:08.304Z,13.20
2018-04-10T21:26:34.771Z,13.20
2018-04-10T21:29:01.165Z,13.20
2018-04-10T21:31:27.574Z,13.10
2018-04-10T21:33:54.094Z,13.10
2018-04-10T21:36:20.548Z,13.10
2018-04-10T21:38:47.740Z,13.10
2018-04-10T21:41:14.227Z,13.10
2018-04-10T21:43:41.331Z,13.00
2018-04-10T21:46:07.838Z,13.00
2018-04-10T21:48:34.367Z,12.90
2018-04-10T21:51:00.890Z,13.00
2018-04-10T21:53:28.106Z,13.10
2018-04-10T21:55:54.599Z,13.10
2018-04-10T21:58:21.068Z,13.10
2018-04-10T22:00:47.611Z,13.00
2018-04-10T22:03:14.199Z,13.00
2018-04-10T22:05:41.474Z,12.90
2018-04-10T22:08:07.963Z,12.80
2018-04-10T22:10:34.420Z,12.90
2018-04-10T22:13:01.712Z,12.90
2018-04-10T22:15:28.239Z,12.80
2018-04-10T22:17:54.742Z,12.90
2018-04-10T22:20:21.252Z,12.80
2018-04-10T22:22:48.582Z,12.80
2018-04-10T22:25:15.070Z,12.80
2018-04-10T22:27:41.640Z,12.80
2018-04-10T22:30:08.123Z,12.70
2018-04-10T22:32:34.723Z,12.70
2018-04-10T22:35:01.956Z,12.70
2018-04-10T22:37:28.511Z,12.70
2018-04-10T22:39:55.830Z,12.60
2018-04-10T22:42:22.334Z,12.60
2018-04-10T22:44:48.828Z,12.60
2018-04-10T22:47:16.136Z,12.50
2018-04-10T22:49:42.615Z,12.50
2018-04-10T22:52:09.157Z,12.60
2018-04-10T22:54:36.628Z,12.60
2018-04-10T22:57:03.909Z,12.50
2018-04-10T22:59:30.490Z,12.60
2018-04-10T23:01:56.998Z,12.50
2018-04-10T23:04:23.463Z,12.60
2018-04-10T23:06:49.937Z,12.60
2018-04-10T23:09:17.173Z,12.70
2018-04-10T23:11:43.784Z,12.70
2018-04-10T23:14:10.158Z,12.70
2018-04-10T23:16:37.383Z,12.60
2018-04-10T23:19:03.788Z,12.60
2018-04-10T23:21:30.190Z,12.60
2018-04-10T23:23:57.384Z,12.60
2018-04-10T23:26:23.876Z,12.60
2018-04-10T23:28:50.282Z,12.70
2018-04-10T23:31:16.782Z,12.60
2018-04-10T23:33:43.263Z,12.60
2018-04-10T23:36:09.761Z,12.70
2018-04-10T23:38:36.347Z,12.70
2018-04-10T23:41:02.946Z,12.60
2018-04-10T23:43:29.407Z,12.60
2018-04-10T23:45:55.854Z,12.60
2018-04-10T23:48:23.273Z,12.60
2018-04-10T23:50:49.833Z,12.60
2018-04-10T23:53:16.368Z,12.60
2018-04-10T23:55:42.890Z,12.60
2018-04-10T23:58:09.293Z,12.50
